sensor_id;sensor_type;location;lat;lon;timestamp;P1;durP1;ratioP1;P2;durP2;ratioP2
63157;SDS011;49381;49.338;8.794;2022-10-04T00:01:18;6.97;;;3.83;;
63157;SDS011;49381;49.338;8.794;2022-10-04T00:03:21;7.95;;;4.28;;
63157;SDS011;49381;49.338;8.794;2022-10-04T00:05:26;13.30;;;4.15;;
63157;SDS011;49381;49.338;8.794;2022-10-04T00:07:30;10.77;;;4.15;;
63157;SDS011;49381;49.338;8.794;2022-10-04T00:09:34;28.63;;;5.53;;
63157;SDS011;49381;49.338;8.794;2022-10-04T00:11:42;9.00;;;4.63;;
63157;SDS011;49381;49.338;8.794;2022-10-04T00:13:48;29.05;;;4.75;;
63157;SDS011;49381;49.338;8.794;2022-10-04T00:15:52;6.90;;;4.55;;
63157;SDS011;49381;49.338;8.794;2022-10-04T00:17:59;8.80;;;4.22;;
63157;SDS011;49381;49.338;8.794;2022-10-04T00:20:03;8.50;;;3.78;;
63157;SDS011;49381;49.338;8.794;2022-10-04T00:22:44;9.95;;;3.72;;
63157;SDS011;49381;49.338;8.794;2022-10-04T00:25:32;7.25;;;3.92;;
63157;SDS011;49381;49.338;8.794;2022-10-04T00:27:35;10.18;;;3.53;;
63157;SDS011;49381;49.338;8.794;2022-10-04T00:29:37;51.38;;;6.18;;
63157;SDS011;49381;49.338;8.794;2022-10-04T00:36:47;22.42;;;4.03;;
63157;SDS011;49381;49.338;8.794;2022-10-04T00:39:02;5.85;;;3.72;;
63157;SDS011;49381;49.338;8.794;2022-10-04T00:41:13;9.05;;;3.67;;
63157;SDS011;49381;49.338;8.794;2022-10-04T00:43:15;12.50;;;3.80;;
63157;SDS011;49381;49.338;8.794;2022-10-04T00:45:22;35.40;;;5.30;;
63157;SDS011;49381;49.338;8.794;2022-10-04T00:47:28;6.95;;;3.05;;
63157;SDS011;49381;49.338;8.794;2022-10-04T00:49:32;6.45;;;3.72;;
63157;SDS011;49381;49.338;8.794;2022-10-04T00:51:39;7.35;;;3.53;;
63157;SDS011;49381;49.338;8.794;2022-10-04T00:53:51;12.20;;;3.92;;
63157;SDS011;49381;49.338;8.794;2022-10-04T00:55:58;5.63;;;3.85;;
63157;SDS011;49381;49.338;8.794;2022-10-04T00:58:02;8.75;;;4.32;;
63157;SDS011;49381;49.338;8.794;2022-10-04T01:00:07;6.82;;;3.47;;
63157;SDS011;49381;49.338;8.794;2022-10-04T01:02:13;14.10;;;3.38;;
63157;SDS011;49381;49.338;8.794;2022-10-04T01:04:22;25.15;;;4.20;;
63157;SDS011;49381;49.338;8.794;2022-10-04T01:06:27;6.90;;;3.35;;
63157;SDS011;49381;49.338;8.794;2022-10-04T01:08:29;4.65;;;3.08;;
63157;SDS011;49381;49.338;8.794;2022-10-04T01:10:33;5.93;;;3.20;;
63157;SDS011;49381;49.338;8.794;2022-10-04T01:12:41;6.97;;;3.15;;
63157;SDS011;49381;49.338;8.794;2022-10-04T01:14:46;8.98;;;2.95;;
63157;SDS011;49381;49.338;8.794;2022-10-04T01:16:53;6.32;;;3.25;;
63157;SDS011;49381;49.338;8.794;2022-10-04T01:18:54;6.00;;;3.10;;
63157;SDS011;49381;49.338;8.794;2022-10-04T01:20:56;8.60;;;2.88;;
63157;SDS011;49381;49.338;8.794;2022-10-04T01:22:59;4.82;;;2.90;;
63157;SDS011;49381;49.338;8.794;2022-10-04T01:25:02;5.97;;;3.20;;
63157;SDS011;49381;49.338;8.794;2022-10-04T01:27:03;8.88;;;2.90;;
63157;SDS011;49381;49.338;8.794;2022-10-04T01:29:31;12.82;;;2.65;;
63157;SDS011;49381;49.338;8.794;2022-10-04T01:31:32;5.25;;;2.65;;
63157;SDS011;49381;49.338;8.794;2022-10-04T01:33:34;7.22;;;2.78;;
63157;SDS011;49381;49.338;8.794;2022-10-04T01:35:34;7.68;;;2.53;;
63157;SDS011;49381;49.338;8.794;2022-10-04T01:37:35;8.77;;;2.53;;
63157;SDS011;49381;49.338;8.794;2022-10-04T01:39:37;5.43;;;2.60;;
63157;SDS011;49381;49.338;8.794;2022-10-04T01:41:40;7.32;;;3.58;;
63157;SDS011;49381;49.338;8.794;2022-10-04T01:43:45;4.80;;;2.35;;
63157;SDS011;49381;49.338;8.794;2022-10-04T01:45:49;15.23;;;3.65;;
63157;SDS011;49381;49.338;8.794;2022-10-04T01:47:53;9.57;;;2.80;;
63157;SDS011;49381;49.338;8.794;2022-10-04T01:49:57;7.60;;;3.08;;
63157;SDS011;49381;49.338;8.794;2022-10-04T01:52:01;6.43;;;2.50;;
63157;SDS011;49381;49.338;8.794;2022-10-04T01:54:06;5.20;;;2.58;;
63157;SDS011;49381;49.338;8.794;2022-10-04T01:56:11;9.15;;;2.83;;
63157;SDS011;49381;49.338;8.794;2022-10-04T01:58:16;5.20;;;2.47;;
63157;SDS011;49381;49.338;8.794;2022-10-04T02:00:19;6.95;;;2.78;;
63157;SDS011;49381;49.338;8.794;2022-10-04T02:02:22;8.57;;;3.00;;
63157;SDS011;49381;49.338;8.794;2022-10-04T02:04:30;7.40;;;2.63;;
63157;SDS011;49381;49.338;8.794;2022-10-04T02:06:34;3.75;;;2.50;;
63157;SDS011;49381;49.338;8.794;2022-10-04T02:08:40;10.00;;;2.83;;
63157;SDS011;49381;49.338;8.794;2022-10-04T02:10:48;6.70;;;2.55;;
63157;SDS011;49381;49.338;8.794;2022-10-04T02:12:51;3.38;;;2.40;;
63157;SDS011;49381;49.338;8.794;2022-10-04T02:14:52;9.02;;;2.70;;
63157;SDS011;49381;49.338;8.794;2022-10-04T02:16:54;7.97;;;2.75;;
63157;SDS011;49381;49.338;8.794;2022-10-04T02:18:54;12.40;;;3.15;;
63157;SDS011;49381;49.338;8.794;2022-10-04T02:20:55;3.90;;;2.38;;
63157;SDS011;49381;49.338;8.794;2022-10-04T02:22:57;4.75;;;2.50;;
63157;SDS011;49381;49.338;8.794;2022-10-04T02:24:59;17.52;;;2.90;;
63157;SDS011;49381;49.338;8.794;2022-10-04T02:26:59;6.18;;;2.30;;
63157;SDS011;49381;49.338;8.794;2022-10-04T02:29:01;4.72;;;2.70;;
63157;SDS011;49381;49.338;8.794;2022-10-04T02:31:02;16.95;;;3.15;;
63157;SDS011;49381;49.338;8.794;2022-10-04T02:33:04;10.18;;;2.95;;
63157;SDS011;49381;49.338;8.794;2022-10-04T02:35:05;12.10;;;3.38;;
63157;SDS011;49381;49.338;8.794;2022-10-04T02:37:07;5.13;;;2.85;;
63157;SDS011;49381;49.338;8.794;2022-10-04T02:39:09;5.05;;;2.30;;
63157;SDS011;49381;49.338;8.794;2022-10-04T02:41:16;6.30;;;2.60;;
63157;SDS011;49381;49.338;8.794;2022-10-04T02:43:23;5.70;;;2.38;;
63157;SDS011;49381;49.338;8.794;2022-10-04T02:45:35;6.45;;;3.00;;
63157;SDS011;49381;49.338;8.794;2022-10-04T02:47:42;4.50;;;2.88;;
63157;SDS011;49381;49.338;8.794;2022-10-04T02:49:45;5.97;;;2.80;;
63157;SDS011;49381;49.338;8.794;2022-10-04T02:51:48;6.22;;;2.88;;
63157;SDS011;49381;49.338;8.794;2022-10-04T02:53:55;20.08;;;3.47;;
63157;SDS011;49381;49.338;8.794;2022-10-04T02:56:00;5.00;;;2.53;;
63157;SDS011;49381;49.338;8.794;2022-10-04T02:58:03;4.40;;;2.70;;
63157;SDS011;49381;49.338;8.794;2022-10-04T03:00:12;6.95;;;3.05;;
63157;SDS011;49381;49.338;8.794;2022-10-04T03:02:23;3.10;;;1.73;;
63157;SDS011;49381;49.338;8.794;2022-10-04T03:04:25;13.30;;;2.75;;
63157;SDS011;49381;49.338;8.794;2022-10-04T03:06:28;9.95;;;2.70;;
63157;SDS011;49381;49.338;8.794;2022-10-04T03:08:32;8.48;;;2.30;;
63157;SDS011;49381;49.338;8.794;2022-10-04T03:10:43;3.55;;;2.15;;
63157;SDS011;49381;49.338;8.794;2022-10-04T03:12:43;18.77;;;2.80;;
63157;SDS011;49381;49.338;8.794;2022-10-04T03:14:49;16.23;;;3.00;;
63157;SDS011;49381;49.338;8.794;2022-10-04T03:16:52;5.68;;;2.38;;
63157;SDS011;49381;49.338;8.794;2022-10-04T03:18:56;8.98;;;2.50;;
63157;SDS011;49381;49.338;8.794;2022-10-04T03:20:57;5.72;;;2.75;;
63157;SDS011;49381;49.338;8.794;2022-10-04T03:23:00;12.38;;;2.92;;
63157;SDS011;49381;49.338;8.794;2022-10-04T03:25:00;25.17;;;3.38;;
63157;SDS011;49381;49.338;8.794;2022-10-04T03:27:01;4.35;;;2.03;;
63157;SDS011;49381;49.338;8.794;2022-10-04T03:29:05;7.63;;;2.58;;
63157;SDS011;49381;49.338;8.794;2022-10-04T03:31:06;3.83;;;2.50;;
63157;SDS011;49381;49.338;8.794;2022-10-04T03:33:07;4.97;;;2.63;;
63157;SDS011;49381;49.338;8.794;2022-10-04T03:35:14;9.48;;;3.83;;
63157;SDS011;49381;49.338;8.794;2022-10-04T03:37:25;13.13;;;3.08;;
63157;SDS011;49381;49.338;8.794;2022-10-04T03:39:29;9.65;;;2.88;;
63157;SDS011;49381;49.338;8.794;2022-10-04T03:41:32;10.52;;;3.03;;
63157;SDS011;49381;49.338;8.794;2022-10-04T03:43:32;6.63;;;3.25;;
63157;SDS011;49381;49.338;8.794;2022-10-04T03:45:39;17.15;;;3.10;;
63157;SDS011;49381;49.338;8.794;2022-10-04T03:47:42;9.18;;;3.20;;
63157;SDS011;49381;49.338;8.794;2022-10-04T03:49:44;5.00;;;2.80;;
63157;SDS011;49381;49.338;8.794;2022-10-04T03:51:48;5.22;;;2.20;;
63157;SDS011;49381;49.338;8.794;2022-10-04T03:53:50;5.22;;;2.50;;
63157;SDS011;49381;49.338;8.794;2022-10-04T03:55:52;5.40;;;2.53;;
63157;SDS011;49381;49.338;8.794;2022-10-04T03:57:53;5.43;;;2.40;;
63157;SDS011;49381;49.338;8.794;2022-10-04T03:59:53;4.88;;;2.72;;
63157;SDS011;49381;49.338;8.794;2022-10-04T04:02:00;4.07;;;2.45;;
63157;SDS011;49381;49.338;8.794;2022-10-04T04:04:06;9.02;;;2.80;;
63157;SDS011;49381;49.338;8.794;2022-10-04T04:06:16;7.90;;;2.25;;
63157;SDS011;49381;49.338;8.794;2022-10-04T04:08:21;27.95;;;3.15;;
63157;SDS011;49381;49.338;8.794;2022-10-04T04:10:27;15.82;;;2.70;;
63157;SDS011;49381;49.338;8.794;2022-10-04T04:12:32;4.93;;;2.70;;
63157;SDS011;49381;49.338;8.794;2022-10-04T04:14:36;4.57;;;2.63;;
63157;SDS011;49381;49.338;8.794;2022-10-04T04:16:40;7.47;;;2.53;;
63157;SDS011;49381;49.338;8.794;2022-10-04T04:18:41;4.90;;;2.75;;
63157;SDS011;49381;49.338;8.794;2022-10-04T04:20:43;18.88;;;2.95;;
63157;SDS011;49381;49.338;8.794;2022-10-04T04:22:45;3.85;;;2.20;;
63157;SDS011;49381;49.338;8.794;2022-10-04T04:24:55;101.65;;;7.72;;
63157;SDS011;49381;49.338;8.794;2022-10-04T04:26:56;51.22;;;4.93;;
63157;SDS011;49381;49.338;8.794;2022-10-04T04:29:01;3.78;;;2.08;;
63157;SDS011;49381;49.338;8.794;2022-10-04T04:31:05;15.45;;;3.50;;
63157;SDS011;49381;49.338;8.794;2022-10-04T04:33:10;25.52;;;3.08;;
63157;SDS011;49381;49.338;8.794;2022-10-04T04:35:21;6.40;;;2.65;;
63157;SDS011;49381;49.338;8.794;2022-10-04T04:37:23;48.13;;;4.53;;
63157;SDS011;49381;49.338;8.794;2022-10-04T04:39:23;5.25;;;2.28;;
63157;SDS011;49381;49.338;8.794;2022-10-04T04:41:25;7.18;;;3.10;;
63157;SDS011;49381;49.338;8.794;2022-10-04T04:43:28;4.90;;;2.80;;
63157;SDS011;49381;49.338;8.794;2022-10-04T04:45:29;4.57;;;2.47;;
63157;SDS011;49381;49.338;8.794;2022-10-04T04:47:34;3.25;;;2.10;;
63157;SDS011;49381;49.338;8.794;2022-10-04T04:49:37;3.33;;;1.98;;
63157;SDS011;49381;49.338;8.794;2022-10-04T04:51:38;4.50;;;2.60;;
63157;SDS011;49381;49.338;8.794;2022-10-04T04:53:41;5.55;;;2.65;;
63157;SDS011;49381;49.338;8.794;2022-10-04T04:55:42;6.88;;;2.70;;
63157;SDS011;49381;49.338;8.794;2022-10-04T04:57:46;3.15;;;1.75;;
63157;SDS011;49381;49.338;8.794;2022-10-04T04:59:48;4.07;;;2.25;;
63157;SDS011;49381;49.338;8.794;2022-10-04T05:01:52;4.47;;;2.22;;
63157;SDS011;49381;49.338;8.794;2022-10-04T05:03:59;2.65;;;1.80;;
63157;SDS011;49381;49.338;8.794;2022-10-04T05:06:01;3.92;;;2.40;;
63157;SDS011;49381;49.338;8.794;2022-10-04T05:08:03;3.35;;;2.10;;
63157;SDS011;49381;49.338;8.794;2022-10-04T05:10:20;2.97;;;1.40;;
63157;SDS011;49381;49.338;8.794;2022-10-04T05:12:27;3.03;;;2.13;;
63157;SDS011;49381;49.338;8.794;2022-10-04T05:14:29;5.03;;;2.75;;
63157;SDS011;49381;49.338;8.794;2022-10-04T05:16:31;6.72;;;2.25;;
63157;SDS011;49381;49.338;8.794;2022-10-04T05:18:36;6.15;;;2.10;;
63157;SDS011;49381;49.338;8.794;2022-10-04T05:20:37;2.90;;;2.20;;
63157;SDS011;49381;49.338;8.794;2022-10-04T05:22:37;4.80;;;2.53;;
63157;SDS011;49381;49.338;8.794;2022-10-04T05:24:42;3.45;;;2.03;;
63157;SDS011;49381;49.338;8.794;2022-10-04T05:26:47;3.15;;;1.73;;
63157;SDS011;49381;49.338;8.794;2022-10-04T05:28:49;3.17;;;1.90;;
63157;SDS011;49381;49.338;8.794;2022-10-04T05:30:55;3.85;;;1.92;;
63157;SDS011;49381;49.338;8.794;2022-10-04T05:33:04;5.00;;;2.35;;
63157;SDS011;49381;49.338;8.794;2022-10-04T05:35:13;6.00;;;2.47;;
63157;SDS011;49381;49.338;8.794;2022-10-04T05:37:21;4.13;;;2.17;;
63157;SDS011;49381;49.338;8.794;2022-10-04T05:39:31;3.45;;;2.25;;
63157;SDS011;49381;49.338;8.794;2022-10-04T05:41:40;4.90;;;2.78;;
63157;SDS011;49381;49.338;8.794;2022-10-04T05:43:49;3.35;;;2.30;;
63157;SDS011;49381;49.338;8.794;2022-10-04T05:48:23;3.83;;;2.20;;
63157;SDS011;49381;49.338;8.794;2022-10-04T05:50:27;5.50;;;2.22;;
63157;SDS011;49381;49.338;8.794;2022-10-04T05:52:30;5.65;;;2.45;;
63157;SDS011;49381;49.338;8.794;2022-10-04T05:54:34;5.85;;;2.30;;
63157;SDS011;49381;49.338;8.794;2022-10-04T05:56:41;6.65;;;2.85;;
63157;SDS011;49381;49.338;8.794;2022-10-04T05:58:57;5.03;;;2.40;;
63157;SDS011;49381;49.338;8.794;2022-10-04T06:01:09;5.43;;;2.13;;
63157;SDS011;49381;49.338;8.794;2022-10-04T06:03:25;4.20;;;2.67;;
63157;SDS011;49381;49.338;8.794;2022-10-04T06:05:40;3.17;;;2.10;;
63157;SDS011;49381;49.338;8.794;2022-10-04T06:07:48;6.07;;;2.28;;
63157;SDS011;49381;49.338;8.794;2022-10-04T06:09:55;5.93;;;2.65;;
63157;SDS011;49381;49.338;8.794;2022-10-04T06:12:08;3.85;;;2.00;;
63157;SDS011;49381;49.338;8.794;2022-10-04T06:14:19;4.43;;;2.90;;
63157;SDS011;49381;49.338;8.794;2022-10-04T06:16:46;4.80;;;2.50;;
63157;SDS011;49381;49.338;8.794;2022-10-04T06:19:03;3.55;;;2.38;;
63157;SDS011;49381;49.338;8.794;2022-10-04T06:21:18;5.45;;;2.53;;
63157;SDS011;49381;49.338;8.794;2022-10-04T06:23:20;5.47;;;2.90;;
63157;SDS011;49381;49.338;8.794;2022-10-04T06:25:24;5.30;;;3.08;;
63157;SDS011;49381;49.338;8.794;2022-10-04T06:27:29;6.28;;;2.50;;
63157;SDS011;49381;49.338;8.794;2022-10-04T06:29:34;4.90;;;2.65;;
63157;SDS011;49381;49.338;8.794;2022-10-04T06:34:08;3.53;;;1.92;;
63157;SDS011;49381;49.338;8.794;2022-10-04T06:39:06;2.63;;;1.80;;
63157;SDS011;49381;49.338;8.794;2022-10-04T06:41:24;3.95;;;2.00;;
63157;SDS011;49381;49.338;8.794;2022-10-04T06:43:38;4.30;;;1.67;;
63157;SDS011;49381;49.338;8.794;2022-10-04T06:45:56;3.17;;;1.75;;
63157;SDS011;49381;49.338;8.794;2022-10-04T06:50:21;3.42;;;1.95;;
63157;SDS011;49381;49.338;8.794;2022-10-04T06:52:30;7.30;;;3.47;;
63157;SDS011;49381;49.338;8.794;2022-10-04T06:54:48;4.78;;;2.17;;
63157;SDS011;49381;49.338;8.794;2022-10-04T06:57:08;4.72;;;1.85;;
63157;SDS011;49381;49.338;8.794;2022-10-04T06:59:34;2.35;;;1.50;;
63157;SDS011;49381;49.338;8.794;2022-10-04T07:01:50;3.55;;;1.60;;
63157;SDS011;49381;49.338;8.794;2022-10-04T07:03:56;3.30;;;1.58;;
63157;SDS011;49381;49.338;8.794;2022-10-04T07:06:06;4.15;;;2.45;;
63157;SDS011;49381;49.338;8.794;2022-10-04T07:08:09;4.47;;;2.00;;
63157;SDS011;49381;49.338;8.794;2022-10-04T07:10:24;4.85;;;2.03;;
63157;SDS011;49381;49.338;8.794;2022-10-04T07:12:29;3.40;;;1.80;;
63157;SDS011;49381;49.338;8.794;2022-10-04T07:14:31;3.85;;;1.85;;
63157;SDS011;49381;49.338;8.794;2022-10-04T07:16:36;3.47;;;1.75;;
63157;SDS011;49381;49.338;8.794;2022-10-04T07:18:43;4.78;;;1.88;;
63157;SDS011;49381;49.338;8.794;2022-10-04T07:20:51;3.55;;;2.20;;
63157;SDS011;49381;49.338;8.794;2022-10-04T07:23:02;3.03;;;1.65;;
63157;SDS011;49381;49.338;8.794;2022-10-04T07:27:12;4.15;;;1.75;;
63157;SDS011;49381;49.338;8.794;2022-10-04T07:29:16;4.22;;;1.88;;
63157;SDS011;49381;49.338;8.794;2022-10-04T07:33:48;3.28;;;1.80;;
63157;SDS011;49381;49.338;8.794;2022-10-04T07:36:09;3.97;;;2.13;;
63157;SDS011;49381;49.338;8.794;2022-10-04T07:41:03;3.67;;;1.98;;
63157;SDS011;49381;49.338;8.794;2022-10-04T07:43:09;3.80;;;1.98;;
63157;SDS011;49381;49.338;8.794;2022-10-04T07:45:30;5.90;;;2.53;;
63157;SDS011;49381;49.338;8.794;2022-10-04T07:47:42;3.22;;;2.08;;
63157;SDS011;49381;49.338;8.794;2022-10-04T07:49:44;5.53;;;2.10;;
63157;SDS011;49381;49.338;8.794;2022-10-04T07:52:00;3.17;;;1.88;;
63157;SDS011;49381;49.338;8.794;2022-10-04T07:54:15;3.65;;;2.08;;
63157;SDS011;49381;49.338;8.794;2022-10-04T07:56:32;4.47;;;2.13;;
63157;SDS011;49381;49.338;8.794;2022-10-04T08:00:46;4.28;;;2.30;;
63157;SDS011;49381;49.338;8.794;2022-10-04T08:02:56;4.78;;;2.17;;
63157;SDS011;49381;49.338;8.794;2022-10-04T08:05:13;6.70;;;1.83;;
63157;SDS011;49381;49.338;8.794;2022-10-04T08:07:21;5.57;;;2.05;;
63157;SDS011;49381;49.338;8.794;2022-10-04T08:11:53;6.68;;;2.53;;
63157;SDS011;49381;49.338;8.794;2022-10-04T08:14:07;4.55;;;2.65;;
63157;SDS011;49381;49.338;8.794;2022-10-04T08:16:22;9.15;;;2.58;;
63157;SDS011;49381;49.338;8.794;2022-10-04T08:18:37;4.53;;;2.33;;
63157;SDS011;49381;49.338;8.794;2022-10-04T08:20:49;3.85;;;2.28;;
63157;SDS011;49381;49.338;8.794;2022-10-04T08:22:59;5.72;;;2.55;;
63157;SDS011;49381;49.338;8.794;2022-10-04T08:25:11;4.93;;;3.00;;
63157;SDS011;49381;49.338;8.794;2022-10-04T08:27:21;9.57;;;3.70;;
63157;SDS011;49381;49.338;8.794;2022-10-04T08:29:43;7.65;;;3.00;;
63157;SDS011;49381;49.338;8.794;2022-10-04T08:31:59;10.10;;;4.22;;
63157;SDS011;49381;49.338;8.794;2022-10-04T08:34:08;6.82;;;2.97;;
63157;SDS011;49381;49.338;8.794;2022-10-04T08:36:19;8.48;;;3.25;;
63157;SDS011;49381;49.338;8.794;2022-10-04T08:38:34;6.55;;;3.50;;
63157;SDS011;49381;49.338;8.794;2022-10-04T08:43:30;8.30;;;4.00;;
63157;SDS011;49381;49.338;8.794;2022-10-04T08:45:50;8.63;;;3.40;;
63157;SDS011;49381;49.338;8.794;2022-10-04T08:48:20;6.25;;;3.40;;
63157;SDS011;49381;49.338;8.794;2022-10-04T08:50:54;10.40;;;3.30;;
63157;SDS011;49381;49.338;8.794;2022-10-04T08:53:28;9.23;;;2.90;;
63157;SDS011;49381;49.338;8.794;2022-10-04T08:55:54;12.88;;;3.78;;
63157;SDS011;49381;49.338;8.794;2022-10-04T08:58:11;6.72;;;3.28;;
63157;SDS011;49381;49.338;8.794;2022-10-04T09:00:15;8.30;;;3.40;;
63157;SDS011;49381;49.338;8.794;2022-10-04T09:07:20;6.60;;;3.45;;
63157;SDS011;49381;49.338;8.794;2022-10-04T09:09:51;8.63;;;2.95;;
63157;SDS011;49381;49.338;8.794;2022-10-04T09:12:13;7.55;;;3.30;;
63157;SDS011;49381;49.338;8.794;2022-10-04T09:14:28;10.75;;;3.35;;
63157;SDS011;49381;49.338;8.794;2022-10-04T09:16:39;9.05;;;3.35;;
63157;SDS011;49381;49.338;8.794;2022-10-04T09:18:47;5.85;;;3.15;;
63157;SDS011;49381;49.338;8.794;2022-10-04T09:20:56;7.10;;;3.17;;
63157;SDS011;49381;49.338;8.794;2022-10-04T09:23:06;10.82;;;2.88;;
63157;SDS011;49381;49.338;8.794;2022-10-04T09:25:18;9.52;;;3.45;;
63157;SDS011;49381;49.338;8.794;2022-10-04T09:27:32;6.85;;;2.60;;
63157;SDS011;49381;49.338;8.794;2022-10-04T09:29:50;8.88;;;2.67;;
63157;SDS011;49381;49.338;8.794;2022-10-04T09:34:31;6.32;;;2.95;;
63157;SDS011;49381;49.338;8.794;2022-10-04T09:36:47;7.15;;;3.42;;
63157;SDS011;49381;49.338;8.794;2022-10-04T09:41:48;5.28;;;3.28;;
63157;SDS011;49381;49.338;8.794;2022-10-04T09:44:07;5.45;;;3.10;;
63157;SDS011;49381;49.338;8.794;2022-10-04T09:46:34;7.80;;;3.08;;
63157;SDS011;49381;49.338;8.794;2022-10-04T09:48:43;6.40;;;3.08;;
63157;SDS011;49381;49.338;8.794;2022-10-04T09:51:06;6.70;;;2.75;;
63157;SDS011;49381;49.338;8.794;2022-10-04T09:53:19;6.55;;;2.60;;
63157;SDS011;49381;49.338;8.794;2022-10-04T09:55:38;10.13;;;3.53;;
63157;SDS011;49381;49.338;8.794;2022-10-04T09:57:51;9.57;;;3.30;;
63157;SDS011;49381;49.338;8.794;2022-10-04T10:00:10;6.50;;;2.45;;
63157;SDS011;49381;49.338;8.794;2022-10-04T10:02:30;6.60;;;3.10;;
63157;SDS011;49381;49.338;8.794;2022-10-04T10:04:59;6.82;;;2.83;;
63157;SDS011;49381;49.338;8.794;2022-10-04T10:07:27;11.52;;;3.40;;
63157;SDS011;49381;49.338;8.794;2022-10-04T10:09:37;7.07;;;2.72;;
63157;SDS011;49381;49.338;8.794;2022-10-04T10:11:43;9.05;;;3.03;;
63157;SDS011;49381;49.338;8.794;2022-10-04T10:13:56;9.25;;;2.88;;
63157;SDS011;49381;49.338;8.794;2022-10-04T10:18:51;6.82;;;2.60;;
63157;SDS011;49381;49.338;8.794;2022-10-04T10:21:10;7.35;;;2.90;;
63157;SDS011;49381;49.338;8.794;2022-10-04T10:23:33;6.72;;;3.03;;
63157;SDS011;49381;49.338;8.794;2022-10-04T10:25:49;9.20;;;3.20;;
63157;SDS011;49381;49.338;8.794;2022-10-04T10:28:04;7.68;;;2.63;;
63157;SDS011;49381;49.338;8.794;2022-10-04T10:30:24;5.20;;;2.58;;
63157;SDS011;49381;49.338;8.794;2022-10-04T10:32:37;7.28;;;2.78;;
63157;SDS011;49381;49.338;8.794;2022-10-04T10:35:00;6.30;;;2.70;;
63157;SDS011;49381;49.338;8.794;2022-10-04T10:37:14;6.03;;;2.22;;
63157;SDS011;49381;49.338;8.794;2022-10-04T10:39:22;6.90;;;2.47;;
63157;SDS011;49381;49.338;8.794;2022-10-04T10:41:38;5.30;;;2.50;;
63157;SDS011;49381;49.338;8.794;2022-10-04T10:43:51;8.38;;;2.95;;
63157;SDS011;49381;49.338;8.794;2022-10-04T10:46:03;6.50;;;2.25;;
63157;SDS011;49381;49.338;8.794;2022-10-04T10:48:13;7.55;;;2.40;;
63157;SDS011;49381;49.338;8.794;2022-10-04T10:50:18;7.45;;;2.72;;
63157;SDS011;49381;49.338;8.794;2022-10-04T10:52:49;7.07;;;3.08;;
63157;SDS011;49381;49.338;8.794;2022-10-04T10:55:21;10.05;;;2.65;;
63157;SDS011;49381;49.338;8.794;2022-10-04T10:57:32;5.47;;;2.20;;
63157;SDS011;49381;49.338;8.794;2022-10-04T11:00:12;6.40;;;2.40;;
63157;SDS011;49381;49.338;8.794;2022-10-04T11:07:47;8.95;;;2.80;;
63157;SDS011;49381;49.338;8.794;2022-10-04T11:10:00;5.53;;;2.40;;
63157;SDS011;49381;49.338;8.794;2022-10-04T11:14:54;5.70;;;2.75;;
63157;SDS011;49381;49.338;8.794;2022-10-04T11:17:20;4.10;;;2.13;;
63157;SDS011;49381;49.338;8.794;2022-10-04T11:27:20;6.22;;;2.40;;
63157;SDS011;49381;49.338;8.794;2022-10-04T11:29:40;6.70;;;2.60;;
63157;SDS011;49381;49.338;8.794;2022-10-04T11:32:14;8.32;;;2.30;;
63157;SDS011;49381;49.338;8.794;2022-10-04T11:34:51;9.32;;;2.70;;
63157;SDS011;49381;49.338;8.794;2022-10-04T11:37:11;6.60;;;2.40;;
63157;SDS011;49381;49.338;8.794;2022-10-04T11:39:33;6.20;;;2.08;;
63157;SDS011;49381;49.338;8.794;2022-10-04T11:41:53;7.47;;;2.67;;
63157;SDS011;49381;49.338;8.794;2022-10-04T11:46:27;5.78;;;2.42;;
63157;SDS011;49381;49.338;8.794;2022-10-04T11:48:39;7.35;;;2.30;;
63157;SDS011;49381;49.338;8.794;2022-10-04T11:50:55;6.40;;;2.53;;
63157;SDS011;49381;49.338;8.794;2022-10-04T11:53:20;9.57;;;2.80;;
63157;SDS011;49381;49.338;8.794;2022-10-04T11:55:47;5.95;;;2.40;;
63157;SDS011;49381;49.338;8.794;2022-10-04T11:58:03;8.02;;;2.75;;
63157;SDS011;49381;49.338;8.794;2022-10-04T12:00:13;6.47;;;2.50;;
63157;SDS011;49381;49.338;8.794;2022-10-04T12:07:31;5.43;;;2.72;;
63157;SDS011;49381;49.338;8.794;2022-10-04T12:09:43;7.93;;;2.97;;
63157;SDS011;49381;49.338;8.794;2022-10-04T12:12:06;9.18;;;3.03;;
63157;SDS011;49381;49.338;8.794;2022-10-04T12:14:24;4.13;;;2.10;;
63157;SDS011;49381;49.338;8.794;2022-10-04T12:19:04;5.50;;;2.20;;
63157;SDS011;49381;49.338;8.794;2022-10-04T12:23:59;6.80;;;2.80;;
63157;SDS011;49381;49.338;8.794;2022-10-04T12:26:11;4.90;;;1.95;;
63157;SDS011;49381;49.338;8.794;2022-10-04T12:28:37;8.75;;;2.50;;
63157;SDS011;49381;49.338;8.794;2022-10-04T12:30:57;5.15;;;2.67;;
63157;SDS011;49381;49.338;8.794;2022-10-04T12:33:09;7.55;;;2.05;;
63157;SDS011;49381;49.338;8.794;2022-10-04T12:35:18;6.32;;;2.75;;
63157;SDS011;49381;49.338;8.794;2022-10-04T12:37:23;6.68;;;2.85;;
63157;SDS011;49381;49.338;8.794;2022-10-04T12:39:32;6.05;;;2.75;;
63157;SDS011;49381;49.338;8.794;2022-10-04T12:41:44;7.25;;;2.65;;
63157;SDS011;49381;49.338;8.794;2022-10-04T12:43:53;9.48;;;2.88;;
63157;SDS011;49381;49.338;8.794;2022-10-04T12:46:13;6.50;;;2.38;;
63157;SDS011;49381;49.338;8.794;2022-10-04T12:48:26;5.70;;;2.10;;
63157;SDS011;49381;49.338;8.794;2022-10-04T12:50:45;8.52;;;2.50;;
63157;SDS011;49381;49.338;8.794;2022-10-04T12:52:52;4.22;;;2.13;;
63157;SDS011;49381;49.338;8.794;2022-10-04T12:55:01;7.13;;;2.65;;
63157;SDS011;49381;49.338;8.794;2022-10-04T12:57:26;6.55;;;2.47;;
63157;SDS011;49381;49.338;8.794;2022-10-04T12:59:43;9.20;;;2.75;;
63157;SDS011;49381;49.338;8.794;2022-10-04T13:01:58;6.70;;;2.20;;
63157;SDS011;49381;49.338;8.794;2022-10-04T13:04:13;6.25;;;2.47;;
63157;SDS011;49381;49.338;8.794;2022-10-04T13:06:21;5.25;;;2.40;;
63157;SDS011;49381;49.338;8.794;2022-10-04T13:10:41;8.40;;;2.17;;
63157;SDS011;49381;49.338;8.794;2022-10-04T13:13:04;6.47;;;2.65;;
63157;SDS011;49381;49.338;8.794;2022-10-04T13:15:19;7.50;;;2.22;;
63157;SDS011;49381;49.338;8.794;2022-10-04T13:17:30;5.93;;;2.42;;
63157;SDS011;49381;49.338;8.794;2022-10-04T13:19:42;5.10;;;2.40;;
63157;SDS011;49381;49.338;8.794;2022-10-04T13:22:08;4.85;;;2.13;;
63157;SDS011;49381;49.338;8.794;2022-10-04T13:24:27;6.85;;;2.40;;
63157;SDS011;49381;49.338;8.794;2022-10-04T13:26:35;5.15;;;2.38;;
63157;SDS011;49381;49.338;8.794;2022-10-04T13:28:43;5.30;;;2.28;;
63157;SDS011;49381;49.338;8.794;2022-10-04T13:30:53;6.38;;;2.40;;
63157;SDS011;49381;49.338;8.794;2022-10-04T13:33:04;4.38;;;2.13;;
63157;SDS011;49381;49.338;8.794;2022-10-04T13:35:13;4.88;;;2.40;;
63157;SDS011;49381;49.338;8.794;2022-10-04T13:37:23;6.20;;;2.00;;
63157;SDS011;49381;49.338;8.794;2022-10-04T13:39:42;3.92;;;2.22;;
63157;SDS011;49381;49.338;8.794;2022-10-04T13:42:02;5.90;;;2.20;;
63157;SDS011;49381;49.338;8.794;2022-10-04T13:44:16;4.43;;;2.00;;
63157;SDS011;49381;49.338;8.794;2022-10-04T13:46:30;4.03;;;1.80;;
63157;SDS011;49381;49.338;8.794;2022-10-04T13:48:43;6.07;;;1.95;;
63157;SDS011;49381;49.338;8.794;2022-10-04T13:50:53;5.63;;;2.10;;
63157;SDS011;49381;49.338;8.794;2022-10-04T13:53:03;8.10;;;2.20;;
63157;SDS011;49381;49.338;8.794;2022-10-04T13:55:19;6.78;;;2.00;;
63157;SDS011;49381;49.338;8.794;2022-10-04T13:57:26;5.30;;;1.55;;
63157;SDS011;49381;49.338;8.794;2022-10-04T13:59:32;9.38;;;2.42;;
63157;SDS011;49381;49.338;8.794;2022-10-04T14:02:04;8.13;;;1.80;;
63157;SDS011;49381;49.338;8.794;2022-10-04T14:09:43;3.08;;;1.80;;
63157;SDS011;49381;49.338;8.794;2022-10-04T14:14:30;5.53;;;2.30;;
63157;SDS011;49381;49.338;8.794;2022-10-04T14:16:58;8.60;;;2.05;;
63157;SDS011;49381;49.338;8.794;2022-10-04T14:19:29;5.00;;;2.08;;
63157;SDS011;49381;49.338;8.794;2022-10-04T14:24:29;4.03;;;2.03;;
63157;SDS011;49381;49.338;8.794;2022-10-04T14:27:11;6.43;;;2.13;;